Time,TemperatureF,DewpointF,PressureIn,WindDirection,WindDirectionDegrees,WindSpeedMPH,WindSpeedGustMPH,Humidity,HourlyPrecipIn,Conditions,Clouds,dailyrainin,SoftwareType,DateUTC
2013-03-22 00:00:00,64.3,32.9,27.18,East,90,0.0,0.0,31,0.00,,,0.00,WUHU216HW,2013-03-22 07:00:00,
2013-03-22 00:05:00,64.3,32.9,27.18,East,90,0.0,0.0,31,0.00,,,0.00,WUHU216HW,2013-03-22 07:05:00,
2013-03-22 00:30:00,63.9,33.4,27.17,ENE,68,0.0,0.0,32,0.00,,,0.00,WUHU216HW,2013-03-22 07:30:00,
2013-03-22 00:31:00,63.9,33.4,27.17,ENE,68,0.0,0.0,32,0.00,,,0.00,WUHU216HW,2013-03-22 07:31:00,
2013-03-22 00:36:00,63.9,33.4,27.17,ENE,68,0.0,0.0,32,0.00,,,0.00,WUHU216HW,2013-03-22 07:36:00,
2013-03-22 00:41:00,63.9,33.4,27.17,ENE,68,0.0,0.0,32,0.00,,,0.00,WUHU216HW,2013-03-22 07:41:00,
2013-03-22 01:00:00,63.4,33.6,27.17,NE,45,0.0,0.0,33,0.00,,,0.00,WUHU216HW,2013-03-22 08:00:00,
2013-03-22 01:05:00,63.4,33.6,27.17,NE,45,0.0,0.0,33,0.00,,,0.00,WUHU216HW,2013-03-22 08:05:00,
2013-03-22 01:30:00,62.6,33.7,27.17,ENE,68,0.0,0.0,34,0.00,,,0.00,WUHU216HW,2013-03-22 08:30:00,
2013-03-22 01:31:00,62.6,33.7,27.17,ENE,68,0.0,0.0,34,0.00,,,0.00,WUHU216HW,2013-03-22 08:31:00,
2013-03-22 01:36:00,62.6,33.7,27.17,ENE,68,0.0,0.0,34,0.00,,,0.00,WUHU216HW,2013-03-22 08:36:00,
2013-03-22 02:00:00,62.8,33.9,27.16,SE,135,0.0,0.0,34,0.00,,,0.00,WUHU216HW,2013-03-22 09:00:00,
2013-03-22 02:05:00,62.8,33.9,27.16,SE,135,0.0,0.0,34,0.00,,,0.00,WUHU216HW,2013-03-22 09:05:00,
2013-03-22 02:30:00,62.5,33.5,27.15,ENE,68,0.0,0.0,34,0.00,,,0.00,WUHU216HW,2013-03-22 09:30:00,
2013-03-22 02:31:00,62.5,33.5,27.15,ENE,68,0.0,0.0,34,0.00,,,0.00,WUHU216HW,2013-03-22 09:31:00,
2013-03-22 02:36:00,62.5,33.5,27.15,ENE,68,0.0,0.0,34,0.00,,,0.00,WUHU216HW,2013-03-22 09:36:00,
2013-03-22 03:00:00,62.6,33.7,27.15,ESE,113,0.0,0.0,34,0.00,,,0.00,WUHU216HW,2013-03-22 10:00:00,
2013-03-22 03:05:00,62.6,33.7,27.14,ESE,113,0.0,0.0,34,0.00,,,0.00,WUHU216HW,2013-03-22 10:05:00,
2013-03-22 03:30:00,62.3,33.3,27.15,SW,225,0.4,0.4,34,0.00,,,0.00,WUHU216HW,2013-03-22 10:30:00,
2013-03-22 03:31:00,62.3,33.3,27.15,NNE,23,0.0,0.0,34,0.00,,,0.00,WUHU216HW,2013-03-22 10:31:00,
2013-03-22 03:36:00,62.3,33.3,27.15,SW,225,0.4,0.4,34,0.00,,,0.00,WUHU216HW,2013-03-22 10:36:00,
2013-03-22 04:00:00,61.4,33.9,27.14,NNW,338,0.7,0.7,36,0.00,,,0.00,WUHU216HW,2013-03-22 11:00:00,
2013-03-22 04:05:00,61.4,33.9,27.14,NNW,338,0.7,0.7,36,0.00,,,0.00,WUHU216HW,2013-03-22 11:05:00,
2013-03-22 04:30:00,59.6,33.1,27.14,ENE,68,0.0,0.0,37,0.00,,,0.00,WUHU216HW,2013-03-22 11:30:00,
2013-03-22 04:31:00,59.6,33.1,27.14,ENE,68,0.0,0.0,37,0.00,,,0.00,WUHU216HW,2013-03-22 11:31:00,
2013-03-22 04:36:00,59.6,33.1,27.14,ENE,68,0.0,0.0,37,0.00,,,0.00,WUHU216HW,2013-03-22 11:36:00,
2013-03-22 05:00:00,58.5,32.9,27.15,NE,45,0.0,0.0,38,0.00,,,0.00,WUHU216HW,2013-03-22 12:00:00,
2013-03-22 05:05:00,58.3,32.7,27.15,NE,45,0.0,0.0,38,0.00,,,0.00,WUHU216HW,2013-03-22 12:05:00,
2013-03-22 05:10:00,58.3,32.7,27.15,NE,45,0.0,0.0,38,0.00,,,0.00,WUHU216HW,2013-03-22 12:10:00,
2013-03-22 05:30:00,56.9,32.1,27.16,NNE,23,0.0,0.0,39,0.00,,,0.00,WUHU216HW,2013-03-22 12:30:00,
2013-03-22 05:31:00,56.9,32.1,27.16,NNE,23,0.0,0.0,39,0.00,,,0.00,WUHU216HW,2013-03-22 12:31:00,
2013-03-22 05:36:00,56.9,32.1,27.16,NNE,23,0.0,0.0,39,0.00,,,0.00,WUHU216HW,2013-03-22 12:36:00,
2013-03-22 06:00:00,55.8,31.9,27.17,SE,135,0.0,0.0,40,0.00,,,0.00,WUHU216HW,2013-03-22 13:00:00,
2013-03-22 06:05:00,55.8,31.9,27.17,SE,135,0.0,0.0,40,0.00,,,0.00,WUHU216HW,2013-03-22 13:05:00,
2013-03-22 06:10:00,55.8,31.9,27.17,SE,135,0.0,0.0,40,0.00,,,0.00,WUHU216HW,2013-03-22 13:10:00,
2013-03-22 06:30:00,54.7,31.4,27.18,NNE,23,0.0,0.0,41,0.00,,,0.00,WUHU216HW,2013-03-22 13:30:00,
2013-03-22 06:31:00,54.7,31.4,27.18,NNE,23,0.0,0.0,41,0.00,,,0.00,WUHU216HW,2013-03-22 13:31:00,
2013-03-22 06:36:00,54.7,31.4,27.18,NNE,23,0.0,0.0,41,0.00,,,0.00,WUHU216HW,2013-03-22 13:36:00,
2013-03-22 07:00:00,54.0,31.3,27.19,ESE,113,0.0,0.0,42,0.00,,,0.00,WUHU216HW,2013-03-22 14:00:00,
2013-03-22 07:05:00,54.2,31.5,27.19,ESE,113,0.0,0.0,42,0.00,,,0.00,WUHU216HW,2013-03-22 14:05:00,
2013-03-22 07:30:00,56.5,33.0,27.19,NE,45,0.2,0.2,41,0.00,,,0.00,WUHU216HW,2013-03-22 14:30:00,
2013-03-22 07:31:00,56.5,33.0,27.19,NE,45,0.2,0.2,41,0.00,,,0.00,WUHU216HW,2013-03-22 14:31:00,
2013-03-22 07:36:00,56.5,33.0,27.19,NE,45,0.2,0.2,41,0.00,,,0.00,WUHU216HW,2013-03-22 14:36:00,
2013-03-22 08:00:00,60.8,33.5,27.19,SE,135,0.7,0.7,36,0.00,,,0.00,WUHU216HW,2013-03-22 15:00:00,
2013-03-22 08:05:00,60.8,33.5,27.19,ENE,68,1.1,1.1,36,0.00,,,0.00,WUHU216HW,2013-03-22 15:05:00,
2013-03-22 08:30:00,63.4,33.6,27.20,ESE,113,1.3,2.5,33,0.00,,,0.00,WUHU216HW,2013-03-22 15:30:00,
2013-03-22 08:31:00,63.4,33.6,27.20,ESE,113,2.5,2.5,33,0.00,,,0.00,WUHU216HW,2013-03-22 15:31:00,
2013-03-22 08:36:00,63.4,33.6,27.20,ESE,113,1.3,2.5,33,0.00,,,0.00,WUHU216HW,2013-03-22 15:36:00,
2013-03-22 09:00:00,65.9,35.1,27.19,SW,225,1.8,1.8,32,0.00,,,0.00,WUHU216HW,2013-03-22 16:00:00,
2013-03-22 09:05:00,65.7,35.0,27.19,SSW,203,0.9,1.8,32,0.00,,,0.00,WUHU216HW,2013-03-22 16:05:00,
2013-03-22 10:00:00,70.0,35.2,27.20,WSW,248,3.4,3.4,28,0.00,,,0.00,WUHU216HW,2013-03-22 17:00:00,
2013-03-22 10:05:00,70.6,33.7,27.20,NW,315,2.5,4.7,26,0.00,,,0.00,WUHU216HW,2013-03-22 17:05:00,
2013-03-22 10:10:00,70.6,33.7,27.19,SSW,203,2.7,4.7,26,0.00,,,0.00,WUHU216HW,2013-03-22 17:10:00,
2013-03-22 10:15:00,70.9,34.0,27.20,WNW,293,3.1,5.6,26,0.00,,,0.00,WUHU216HW,2013-03-22 17:15:00,
2013-03-22 10:20:00,71.3,34.3,27.19,NNW,338,2.2,5.6,26,0.00,,,0.00,WUHU216HW,2013-03-22 17:20:00,
2013-03-22 10:22:00,71.5,34.5,27.19,SW,225,1.1,1.1,26,0.00,,,0.00,WUHU216HW,2013-03-22 17:22:00,
2013-03-22 10:25:00,71.5,34.5,27.19,SW,225,1.1,5.4,26,0.00,,,0.00,WUHU216HW,2013-03-22 17:25:00,
2013-03-22 10:30:00,71.5,34.5,27.19,SW,225,1.1,4.3,26,0.00,,,0.00,WUHU216HW,2013-03-22 17:30:00,
2013-03-22 10:53:00,72.9,34.7,27.19,NW,315,4.3,4.3,25,0.00,,,0.00,WUHU216HW,2013-03-22 17:53:00,
2013-03-22 10:58:00,72.9,34.7,27.19,WSW,248,3.4,4.3,25,0.00,,,0.00,WUHU216HW,2013-03-22 17:58:00,
2013-03-22 11:00:00,72.7,34.5,27.19,West,270,1.8,1.8,25,0.00,,,0.00,WUHU216HW,2013-03-22 18:00:00,
2013-03-22 11:03:00,72.7,34.5,27.19,West,270,1.8,3.4,25,0.00,,,0.00,WUHU216HW,2013-03-22 18:03:00,
2013-03-22 11:08:00,72.7,34.5,27.19,West,270,1.8,1.8,25,0.00,,,0.00,WUHU216HW,2013-03-22 18:08:00,
2013-03-22 11:30:00,74.5,35.0,27.19,South,180,3.1,3.1,24,0.00,,,0.00,WUHU216HW,2013-03-22 18:30:00,
2013-03-22 11:35:00,74.5,35.0,27.19,South,180,3.1,3.1,24,0.00,,,0.00,WUHU216HW,2013-03-22 18:35:00,
2013-03-22 12:00:00,74.7,34.1,27.17,NNW,338,2.0,2.0,23,0.00,,,0.00,WUHU216HW,2013-03-22 19:00:00,
2013-03-22 12:05:00,74.7,34.1,27.17,NNW,338,2.5,2.5,23,0.00,,,0.00,WUHU216HW,2013-03-22 19:05:00,
2013-03-22 12:30:00,76.1,34.3,27.17,SSW,203,4.7,4.7,22,0.00,,,0.00,WUHU216HW,2013-03-22 19:30:00,
2013-03-22 12:35:00,76.1,34.3,27.17,SSW,203,4.7,4.7,22,0.00,,,0.00,WUHU216HW,2013-03-22 19:35:00,
2013-03-22 13:00:00,76.5,33.6,27.16,NNW,338,1.3,1.3,21,0.00,,,0.00,WUHU216HW,2013-03-22 20:00:00,
2013-03-22 13:05:00,76.7,33.7,27.16,WSW,248,1.8,1.8,21,0.00,,,0.00,WUHU216HW,2013-03-22 20:05:00,
2013-03-22 13:30:00,77.9,32.0,27.15,WNW,293,8.1,8.1,19,0.00,,,0.00,WUHU216HW,2013-03-22 20:30:00,
2013-03-22 13:35:00,77.8,31.9,27.15,NW,315,7.4,8.1,19,0.00,,,0.00,WUHU216HW,2013-03-22 20:35:00,
2013-03-22 14:00:00,77.9,32.0,27.14,West,270,6.0,6.0,19,0.00,,,0.00,WUHU216HW,2013-03-22 21:00:00,
2013-03-22 14:05:00,77.9,32.0,27.13,SW,225,3.1,6.0,19,0.00,,,0.00,WUHU216HW,2013-03-22 21:05:00,
2013-03-22 14:30:00,79.7,31.9,27.12,SW,225,5.6,5.6,18,0.00,,,0.00,WUHU216HW,2013-03-22 21:30:00,
2013-03-22 14:35:00,79.7,31.9,27.12,WSW,248,4.3,5.6,18,0.00,,,0.00,WUHU216HW,2013-03-22 21:35:00,
2013-03-22 15:00:00,79.9,32.0,27.12,West,270,4.0,4.0,18,0.00,,,0.00,WUHU216HW,2013-03-22 22:00:00,
2013-03-22 15:05:00,79.7,31.9,27.12,WSW,248,4.9,4.9,18,0.00,,,0.00,WUHU216HW,2013-03-22 22:05:00,
2013-03-22 15:30:00,79.6,31.7,27.12,SW,225,8.3,8.3,18,0.00,,,0.00,WUHU216HW,2013-03-22 22:30:00,
2013-03-22 15:35:00,79.6,31.7,27.12,SW,225,8.3,8.3,18,0.00,,,0.00,WUHU216HW,2013-03-22 22:35:00,
2013-03-22 16:00:00,79.2,31.3,27.12,WSW,248,4.7,4.7,18,0.00,,,0.00,WUHU216HW,2013-03-22 23:00:00,
2013-03-22 16:05:00,79.2,31.3,27.12,WSW,248,6.7,6.7,18,0.00,,,0.00,WUHU216HW,2013-03-22 23:05:00,
2013-03-22 16:10:00,79.2,31.3,27.12,WSW,248,6.7,6.7,18,0.00,,,0.00,WUHU216HW,2013-03-22 23:10:00,
2013-03-22 16:30:00,78.8,29.3,27.11,West,270,4.7,4.7,17,0.00,,,0.00,WUHU216HW,2013-03-22 23:30:00,
2013-03-22 16:35:00,78.8,29.3,27.11,West,270,5.1,5.1,17,0.00,,,0.00,WUHU216HW,2013-03-22 23:35:00,
2013-03-22 16:40:00,78.8,29.3,27.11,West,270,5.1,5.1,17,0.00,,,0.00,WUHU216HW,2013-03-22 23:40:00,
2013-03-22 17:00:00,78.5,27.5,27.11,NW,315,5.8,5.8,16,0.00,,,0.00,WUHU216HW,2013-03-23 00:00:00,
2013-03-22 17:05:00,78.5,27.5,27.11,NW,315,4.0,5.8,16,0.00,,,0.00,WUHU216HW,2013-03-23 00:05:00,
2013-03-22 17:10:00,78.5,27.5,27.11,NW,315,4.0,5.8,16,0.00,,,0.00,WUHU216HW,2013-03-23 00:10:00,
2013-03-22 17:30:00,77.8,28.5,27.12,SW,225,6.9,6.9,17,0.00,,,0.00,WUHU216HW,2013-03-23 00:30:00,
2013-03-22 17:35:00,77.8,28.5,27.12,West,270,7.8,7.8,17,0.00,,,0.00,WUHU216HW,2013-03-23 00:35:00,
2013-03-22 17:40:00,77.8,28.5,27.12,West,270,7.8,7.8,17,0.00,,,0.00,WUHU216HW,2013-03-23 00:40:00,
2013-03-22 18:00:00,76.7,29.3,27.13,WSW,248,4.7,4.7,18,0.00,,,0.00,WUHU216HW,2013-03-23 01:00:00,
2013-03-22 18:05:00,76.5,29.2,27.13,WSW,248,5.8,5.8,18,0.00,,,0.00,WUHU216HW,2013-03-23 01:05:00,
2013-03-22 18:10:00,76.5,29.2,27.13,WSW,248,5.8,5.8,18,0.00,,,0.00,WUHU216HW,2013-03-23 01:10:00,
2013-03-22 18:30:00,75.6,28.4,27.14,WNW,293,6.5,6.5,18,0.00,,,0.00,WUHU216HW,2013-03-23 01:30:00,
2013-03-22 18:35:00,75.6,28.4,27.14,WNW,293,6.5,6.5,18,0.00,,,0.00,WUHU216HW,2013-03-23 01:35:00,
2013-03-22 18:40:00,75.6,28.4,27.14,WNW,293,6.5,6.5,18,0.00,,,0.00,WUHU216HW,2013-03-23 01:40:00,
2013-03-22 19:00:00,73.8,28.7,27.15,SW,225,2.0,2.0,19,0.00,,,0.00,WUHU216HW,2013-03-23 02:00:00,
2013-03-22 19:05:00,73.8,28.7,27.15,West,270,1.8,2.0,19,0.00,,,0.00,WUHU216HW,2013-03-23 02:05:00,
2013-03-22 19:10:00,73.8,28.7,27.15,West,270,1.8,2.0,19,0.00,,,0.00,WUHU216HW,2013-03-23 02:10:00,
2013-03-22 19:30:00,72.5,31.3,27.16,WSW,248,3.1,3.1,22,0.00,,,0.00,WUHU216HW,2013-03-23 02:30:00,
2013-03-22 19:35:00,72.4,31.2,27.16,WSW,248,3.1,3.1,22,0.00,,,0.00,WUHU216HW,2013-03-23 02:35:00,
2013-03-22 19:40:00,72.4,31.2,27.16,WSW,248,3.1,3.1,22,0.00,,,0.00,WUHU216HW,2013-03-23 02:40:00,
2013-03-22 20:00:00,71.3,30.3,27.17,West,270,2.5,2.5,22,0.00,,,0.00,WUHU216HW,2013-03-23 03:00:00,
2013-03-22 20:05:00,71.3,30.3,27.17,SW,225,2.9,2.9,22,0.00,,,0.00,WUHU216HW,2013-03-23 03:05:00,
2013-03-22 20:10:00,71.3,30.3,27.17,SW,225,2.9,2.9,22,0.00,,,0.00,WUHU216HW,2013-03-23 03:10:00,
2013-03-22 20:30:00,70.7,30.8,27.18,WNW,293,3.6,3.6,23,0.00,,,0.00,WUHU216HW,2013-03-23 03:30:00,
2013-03-22 20:35:00,70.6,30.6,27.18,SW,225,2.7,3.6,23,0.00,,,0.00,WUHU216HW,2013-03-23 03:35:00,
2013-03-22 20:40:00,70.6,30.6,27.18,SW,225,2.7,3.6,23,0.00,,,0.00,WUHU216HW,2013-03-23 03:40:00,
2013-03-22 21:00:00,69.5,30.7,27.20,SSW,203,2.5,2.5,24,0.00,,,0.00,WUHU216HW,2013-03-23 04:00:00,
2013-03-22 21:05:00,69.7,30.9,27.20,SW,225,2.5,2.5,24,0.00,,,0.00,WUHU216HW,2013-03-23 04:05:00,
2013-03-22 21:30:00,68.9,29.3,27.20,West,270,3.6,3.6,23,0.00,,,0.00,WUHU216HW,2013-03-23 04:30:00,
2013-03-22 21:35:00,68.9,29.3,27.21,West,270,3.4,3.6,23,0.00,,,0.00,WUHU216HW,2013-03-23 04:35:00,
2013-03-22 21:40:00,68.9,29.3,27.21,West,270,3.4,3.6,23,0.00,,,0.00,WUHU216HW,2013-03-23 04:40:00,
2013-03-22 22:00:00,68.8,29.2,27.22,WSW,248,2.0,2.0,23,0.00,,,0.00,WUHU216HW,2013-03-23 05:00:00,
2013-03-22 22:05:00,68.8,29.2,27.22,SW,225,1.8,2.0,23,0.00,,,0.00,WUHU216HW,2013-03-23 05:05:00,
2013-03-22 22:10:00,68.8,29.2,27.22,SW,225,1.8,2.0,23,0.00,,,0.00,WUHU216HW,2013-03-23 05:10:00,
2013-03-22 22:30:00,67.7,29.3,27.23,West,270,2.2,2.2,24,0.00,,,0.00,WUHU216HW,2013-03-23 05:30:00,
2013-03-22 22:35:00,67.7,29.3,27.23,West,270,2.2,2.2,24,0.00,,,0.00,WUHU216HW,2013-03-23 05:35:00,
2013-03-22 22:40:00,67.7,29.3,27.23,West,270,2.2,2.2,24,0.00,,,0.00,WUHU216HW,2013-03-23 05:40:00,
2013-03-22 23:00:00,66.8,31.4,27.23,West,270,2.0,2.0,27,0.00,,,0.00,WUHU216HW,2013-03-23 06:00:00,
2013-03-22 23:05:00,66.8,31.4,27.23,WSW,248,2.0,2.0,27,0.00,,,0.00,WUHU216HW,2013-03-23 06:05:00,
2013-03-22 23:10:00,66.8,31.4,27.23,WSW,248,2.0,2.0,27,0.00,,,0.00,WUHU216HW,2013-03-23 06:10:00,
2013-03-22 23:30:00,66.1,32.9,27.24,SW,225,0.0,0.0,29,0.00,,,0.00,WUHU216HW,2013-03-23 06:30:00,
2013-03-22 23:35:00,66.1,32.9,27.24,SW,225,0.0,0.0,29,0.00,,,0.00,WUHU216HW,2013-03-23 06:35:00,
2013-03-22 23:40:00,66.1,32.9,27.24,SW,225,0.0,0.0,29,0.00,,,0.00,WUHU216HW,2013-03-23 06:40:00,